sensor_id;sensor_type;location;lat;lon;timestamp;pressure;altitude;pressure_sealevel;temperature;humidity
15308;BME280;7755;52.208;6.964;2023-02-28T00:01:54;102758.03;;;1.45;94.50
15308;BME280;7755;52.208;6.964;2023-02-28T00:05:59;102766.53;;;1.50;94.25
15308;BME280;7755;52.208;6.964;2023-02-28T00:10:02;102775.28;;;1.52;94.29
15308;BME280;7755;52.208;6.964;2023-02-28T00:14:06;102760.66;;;1.56;94.33
15308;BME280;7755;52.208;6.964;2023-02-28T00:18:09;102762.94;;;1.61;94.17
15308;BME280;7755;52.208;6.964;2023-02-28T00:22:15;102769.59;;;1.67;94.23
15308;BME280;7755;52.208;6.964;2023-02-28T00:26:18;102766.53;;;1.71;93.98
15308;BME280;7755;52.208;6.964;2023-02-28T00:30:23;102765.41;;;1.74;94.07
15308;BME280;7755;52.208;6.964;2023-02-28T00:34:27;102761.63;;;1.76;94.04
15308;BME280;7755;52.208;6.964;2023-02-28T00:38:31;102761.22;;;1.81;94.00
15308;BME280;7755;52.208;6.964;2023-02-28T00:42:35;102763.66;;;1.84;93.54
15308;BME280;7755;52.208;6.964;2023-02-28T00:46:39;102770.44;;;1.88;93.38
15308;BME280;7755;52.208;6.964;2023-02-28T00:50:42;102770.44;;;1.88;93.09
15308;BME280;7755;52.208;6.964;2023-02-28T00:54:47;102763.22;;;1.88;93.15
15308;BME280;7755;52.208;6.964;2023-02-28T00:58:49;102759.47;;;1.91;93.28
15308;BME280;7755;52.208;6.964;2023-02-28T01:02:53;102766.22;;;1.95;93.17
15308;BME280;7755;52.208;6.964;2023-02-28T01:06:56;102761.63;;;1.97;92.99
15308;BME280;7755;52.208;6.964;2023-02-28T01:11:08;102762.47;;;1.98;92.73
15308;BME280;7755;52.208;6.964;2023-02-28T01:15:14;102774.03;;;1.98;92.72
15308;BME280;7755;52.208;6.964;2023-02-28T01:19:19;102760.63;;;1.98;92.54
15308;BME280;7755;52.208;6.964;2023-02-28T01:23:22;102767.69;;;1.99;92.55
15308;BME280;7755;52.208;6.964;2023-02-28T01:27:26;102765.72;;;2.01;92.43
15308;BME280;7755;52.208;6.964;2023-02-28T01:31:30;102761.19;;;2.02;92.27
15308;BME280;7755;52.208;6.964;2023-02-28T01:35:34;102753.28;;;2.00;91.84
15308;BME280;7755;52.208;6.964;2023-02-28T01:39:38;102756.66;;;2.02;92.04
15308;BME280;7755;52.208;6.964;2023-02-28T01:48:30;102756.56;;;2.04;91.78
15308;BME280;7755;52.208;6.964;2023-02-28T01:52:35;102755.72;;;2.03;91.86
15308;BME280;7755;52.208;6.964;2023-02-28T01:56:41;102749.34;;;2.04;92.33
15308;BME280;7755;52.208;6.964;2023-02-28T02:00:46;102744.97;;;2.03;92.46
15308;BME280;7755;52.208;6.964;2023-02-28T02:04:55;102748.63;;;2.02;92.69
15308;BME280;7755;52.208;6.964;2023-02-28T02:08:59;102746.78;;;2.03;92.47
15308;BME280;7755;52.208;6.964;2023-02-28T02:13:10;102747.66;;;2.03;93.13
15308;BME280;7755;52.208;6.964;2023-02-28T02:17:23;102742.00;;;2.06;93.06
15308;BME280;7755;52.208;6.964;2023-02-28T02:21:49;102751.06;;;2.05;92.88
15308;BME280;7755;52.208;6.964;2023-02-28T02:26:15;102750.91;;;2.07;93.23
15308;BME280;7755;52.208;6.964;2023-02-28T02:30:52;102740.31;;;2.05;93.78
15308;BME280;7755;52.208;6.964;2023-02-28T02:35:09;102753.44;;;2.08;93.55
15308;BME280;7755;52.208;6.964;2023-02-28T02:39:17;102742.47;;;2.11;93.94
15308;BME280;7755;52.208;6.964;2023-02-28T02:43:25;102729.16;;;2.10;93.71
15308;BME280;7755;52.208;6.964;2023-02-28T02:47:32;102730.75;;;2.12;93.03
15308;BME280;7755;52.208;6.964;2023-02-28T02:51:40;102735.41;;;2.10;93.38
15308;BME280;7755;52.208;6.964;2023-02-28T02:55:47;102733.44;;;2.12;93.15
15308;BME280;7755;52.208;6.964;2023-02-28T02:59:58;102739.66;;;2.13;93.40
15308;BME280;7755;52.208;6.964;2023-02-28T03:04:06;102736.97;;;2.13;93.43
15308;BME280;7755;52.208;6.964;2023-02-28T03:08:11;102739.66;;;2.13;93.27
15308;BME280;7755;52.208;6.964;2023-02-28T03:12:14;102747.00;;;2.11;93.61
15308;BME280;7755;52.208;6.964;2023-02-28T03:16:29;102740.78;;;2.10;93.85
15308;BME280;7755;52.208;6.964;2023-02-28T03:20:39;102728.22;;;2.11;93.75
15308;BME280;7755;52.208;6.964;2023-02-28T03:24:49;102726.22;;;2.13;93.47
15308;BME280;7755;52.208;6.964;2023-02-28T03:28:58;102722.69;;;2.12;93.58
15308;BME280;7755;52.208;6.964;2023-02-28T03:33:08;102725.38;;;2.12;93.06
15308;BME280;7755;52.208;6.964;2023-02-28T03:37:18;102724.41;;;2.13;93.11
15308;BME280;7755;52.208;6.964;2023-02-28T03:41:28;102713.38;;;2.16;93.38
15308;BME280;7755;52.208;6.964;2023-02-28T03:45:35;102716.94;;;2.17;93.34
15308;BME280;7755;52.208;6.964;2023-02-28T03:49:43;102718.75;;;2.16;93.40
15308;BME280;7755;52.208;6.964;2023-02-28T03:53:52;102720.47;;;2.17;92.75
15308;BME280;7755;52.208;6.964;2023-02-28T03:58:01;102722.31;;;2.17;92.81
15308;BME280;7755;52.208;6.964;2023-02-28T04:02:04;102728.50;;;2.17;92.87
15308;BME280;7755;52.208;6.964;2023-02-28T04:06:14;102726.78;;;2.16;92.97
15308;BME280;7755;52.208;6.964;2023-02-28T04:10:18;102727.38;;;2.20;92.62
15308;BME280;7755;52.208;6.964;2023-02-28T04:14:22;102729.94;;;2.22;92.56
15308;BME280;7755;52.208;6.964;2023-02-28T04:18:25;102721.31;;;2.18;92.76
15308;BME280;7755;52.208;6.964;2023-02-28T04:22:28;102731.75;;;2.21;92.48
15308;BME280;7755;52.208;6.964;2023-02-28T04:26:32;102723.56;;;2.23;92.63
15308;BME280;7755;52.208;6.964;2023-02-28T04:30:37;102738.56;;;2.25;92.65
15308;BME280;7755;52.208;6.964;2023-02-28T04:34:41;102737.84;;;2.23;92.86
15308;BME280;7755;52.208;6.964;2023-02-28T04:38:45;102737.28;;;2.19;93.38
15308;BME280;7755;52.208;6.964;2023-02-28T04:42:49;102730.91;;;2.21;93.44
15308;BME280;7755;52.208;6.964;2023-02-28T04:46:53;102738.25;;;2.18;93.41
15308;BME280;7755;52.208;6.964;2023-02-28T04:51:00;102741.66;;;2.21;93.54
15308;BME280;7755;52.208;6.964;2023-02-28T04:55:04;102739.81;;;2.21;93.30
15308;BME280;7755;52.208;6.964;2023-02-28T04:59:07;102750.41;;;2.23;93.56
15308;BME280;7755;52.208;6.964;2023-02-28T05:03:11;102748.47;;;2.25;94.02
15308;BME280;7755;52.208;6.964;2023-02-28T05:07:14;102747.59;;;2.24;93.65
15308;BME280;7755;52.208;6.964;2023-02-28T05:11:19;102754.22;;;2.20;93.79
15308;BME280;7755;52.208;6.964;2023-02-28T05:15:24;102744.19;;;2.22;93.90
15308;BME280;7755;52.208;6.964;2023-02-28T05:19:28;102747.72;;;2.23;93.89
15308;BME280;7755;52.208;6.964;2023-02-28T05:23:32;102742.34;;;2.23;93.99
15308;BME280;7755;52.208;6.964;2023-02-28T05:27:35;102748.31;;;2.26;94.28
15308;BME280;7755;52.208;6.964;2023-02-28T05:31:40;102748.16;;;2.28;94.22
15308;BME280;7755;52.208;6.964;2023-02-28T05:35:44;102759.75;;;2.28;94.00
15308;BME280;7755;52.208;6.964;2023-02-28T05:39:48;102759.75;;;2.28;93.88
15308;BME280;7755;52.208;6.964;2023-02-28T05:43:51;102759.75;;;2.28;93.78
15308;BME280;7755;52.208;6.964;2023-02-28T05:47:55;102760.88;;;2.26;93.77
15308;BME280;7755;52.208;6.964;2023-02-28T05:52:00;102758.44;;;2.23;93.38
15308;BME280;7755;52.208;6.964;2023-02-28T05:56:03;102759.72;;;2.18;93.63
15308;BME280;7755;52.208;6.964;2023-02-28T06:00:08;102769.88;;;2.15;93.77
15308;BME280;7755;52.208;6.964;2023-02-28T06:04:15;102773.41;;;2.15;94.03
15308;BME280;7755;52.208;6.964;2023-02-28T06:08:33;102777.91;;;2.15;93.88
15308;BME280;7755;52.208;6.964;2023-02-28T06:12:37;102781.59;;;2.14;94.15
15308;BME280;7755;52.208;6.964;2023-02-28T06:16:40;102788.78;;;2.13;94.12
15308;BME280;7755;52.208;6.964;2023-02-28T06:20:43;102789.78;;;2.12;94.12
15308;BME280;7755;52.208;6.964;2023-02-28T06:24:47;102795.28;;;2.11;94.38
15308;BME280;7755;52.208;6.964;2023-02-28T06:28:51;102797.97;;;2.11;94.33
15308;BME280;7755;52.208;6.964;2023-02-28T06:32:54;102801.59;;;2.10;94.39
15308;BME280;7755;52.208;6.964;2023-02-28T06:36:57;102801.75;;;2.08;94.56
15308;BME280;7755;52.208;6.964;2023-02-28T06:41:05;102799.06;;;2.08;94.29
15308;BME280;7755;52.208;6.964;2023-02-28T06:45:10;102806.88;;;2.11;94.22
15308;BME280;7755;52.208;6.964;2023-02-28T06:49:13;102804.28;;;2.10;94.06
15308;BME280;7755;52.208;6.964;2023-02-28T06:53:16;102805.16;;;2.10;94.42
15308;BME280;7755;52.208;6.964;2023-02-28T06:57:20;102807.09;;;2.08;94.04
15308;BME280;7755;52.208;6.964;2023-02-28T07:01:23;102807.09;;;2.08;94.26
15308;BME280;7755;52.208;6.964;2023-02-28T07:05:26;102811.78;;;2.06;93.84
15308;BME280;7755;52.208;6.964;2023-02-28T07:09:29;102810.47;;;2.01;93.60
15308;BME280;7755;52.208;6.964;2023-02-28T07:13:34;102817.19;;;1.95;92.84
15308;BME280;7755;52.208;6.964;2023-02-28T07:17:37;102824.53;;;1.93;91.92
15308;BME280;7755;52.208;6.964;2023-02-28T07:21:40;102833.72;;;1.90;90.80
15308;BME280;7755;52.208;6.964;2023-02-28T07:25:43;102835.22;;;1.83;89.73
15308;BME280;7755;52.208;6.964;2023-02-28T07:29:48;102832.63;;;1.82;88.78
15308;BME280;7755;52.208;6.964;2023-02-28T07:33:51;102828.91;;;1.73;89.40
15308;BME280;7755;52.208;6.964;2023-02-28T07:37:57;102822.72;;;1.73;90.21
15308;BME280;7755;52.208;6.964;2023-02-28T07:42:00;102827.09;;;1.74;90.14
15308;BME280;7755;52.208;6.964;2023-02-28T07:46:11;102834.28;;;1.73;90.05
15308;BME280;7755;52.208;6.964;2023-02-28T07:50:15;102840.63;;;1.72;89.52
15308;BME280;7755;52.208;6.964;2023-02-28T07:54:19;102835.28;;;1.72;89.21
15308;BME280;7755;52.208;6.964;2023-02-28T07:58:23;102843.44;;;1.71;88.98
15308;BME280;7755;52.208;6.964;2023-02-28T08:02:28;102831.75;;;1.72;88.55
15308;BME280;7755;52.208;6.964;2023-02-28T08:06:30;102838.78;;;1.73;88.26
15308;BME280;7755;52.208;6.964;2023-02-28T08:10:34;102841.47;;;1.73;87.95
15308;BME280;7755;52.208;6.964;2023-02-28T08:14:37;102842.31;;;1.73;87.10
15308;BME280;7755;52.208;6.964;2023-02-28T08:18:42;102846.78;;;1.84;86.10
15308;BME280;7755;52.208;6.964;2023-02-28T08:22:46;102843.19;;;1.95;85.61
15308;BME280;7755;52.208;6.964;2023-02-28T08:26:50;102836.63;;;2.08;83.31
15308;BME280;7755;52.208;6.964;2023-02-28T08:30:53;102839.56;;;2.26;82.34
15308;BME280;7755;52.208;6.964;2023-02-28T08:34:57;102846.97;;;2.43;79.58
15308;BME280;7755;52.208;6.964;2023-02-28T08:39:01;102849.03;;;2.61;77.56
15308;BME280;7755;52.208;6.964;2023-02-28T08:43:04;102853.09;;;2.86;75.21
15308;BME280;7755;52.208;6.964;2023-02-28T08:47:12;102849.19;;;3.09;73.64
15308;BME280;7755;52.208;6.964;2023-02-28T08:51:17;102850.75;;;3.31;69.20
15308;BME280;7755;52.208;6.964;2023-02-28T08:55:23;102847.38;;;3.48;64.49
15308;BME280;7755;52.208;6.964;2023-02-28T08:59:26;102841.03;;;3.59;61.59
15308;BME280;7755;52.208;6.964;2023-02-28T09:03:30;102841.84;;;3.69;58.18
15308;BME280;7755;52.208;6.964;2023-02-28T09:07:34;102840.56;;;3.83;58.27
15308;BME280;7755;52.208;6.964;2023-02-28T09:11:37;102832.34;;;3.94;57.81
15308;BME280;7755;52.208;6.964;2023-02-28T09:15:40;102836.59;;;3.97;56.97
15308;BME280;7755;52.208;6.964;2023-02-28T09:19:43;102841.81;;;3.98;53.19
15308;BME280;7755;52.208;6.964;2023-02-28T09:23:50;102843.97;;;3.95;50.65
15308;BME280;7755;52.208;6.964;2023-02-28T09:27:53;102836.44;;;3.98;50.42
15308;BME280;7755;52.208;6.964;2023-02-28T09:31:56;102830.63;;;4.03;49.70
15308;BME280;7755;52.208;6.964;2023-02-28T09:36:02;102832.47;;;4.02;49.27
15308;BME280;7755;52.208;6.964;2023-02-28T09:40:09;102828.63;;;4.05;48.62
15308;BME280;7755;52.208;6.964;2023-02-28T09:44:16;102833.44;;;4.11;48.29
15308;BME280;7755;52.208;6.964;2023-02-28T09:48:23;102834.69;;;4.17;48.04
15308;BME280;7755;52.208;6.964;2023-02-28T09:52:29;102831.97;;;4.26;47.81
15308;BME280;7755;52.208;6.964;2023-02-28T09:56:37;102830.69;;;4.30;47.17
15308;BME280;7755;52.208;6.964;2023-02-28T10:00:41;102825.97;;;4.42;46.62
15308;BME280;7755;52.208;6.964;2023-02-28T10:04:47;102821.84;;;4.48;46.53
15308;BME280;7755;52.208;6.964;2023-02-28T10:08:58;102821.78;;;4.57;47.16
15308;BME280;7755;52.208;6.964;2023-02-28T10:13:12;102824.53;;;4.75;48.57
15308;BME280;7755;52.208;6.964;2023-02-28T10:17:19;102814.78;;;4.92;46.79
15308;BME280;7755;52.208;6.964;2023-02-28T10:21:28;102826.50;;;5.01;47.49
15308;BME280;7755;52.208;6.964;2023-02-28T10:25:32;102818.38;;;5.10;46.20
15308;BME280;7755;52.208;6.964;2023-02-28T10:29:36;102821.69;;;5.22;46.57
15308;BME280;7755;52.208;6.964;2023-02-28T10:33:43;102815.53;;;5.30;45.82
15308;BME280;7755;52.208;6.964;2023-02-28T10:37:47;102816.63;;;5.37;46.08
15308;BME280;7755;52.208;6.964;2023-02-28T10:41:51;102812.91;;;5.38;45.65
15308;BME280;7755;52.208;6.964;2023-02-28T10:46:02;102812.59;;;5.41;44.82
15308;BME280;7755;52.208;6.964;2023-02-28T10:50:08;102805.72;;;5.46;45.87
15308;BME280;7755;52.208;6.964;2023-02-28T10:54:31;102814.66;;;5.65;45.70
15308;BME280;7755;52.208;6.964;2023-02-28T10:58:47;102814.72;;;5.73;45.58
15308;BME280;7755;52.208;6.964;2023-02-28T11:02:52;102799.03;;;5.94;43.96
15308;BME280;7755;52.208;6.964;2023-02-28T11:07:00;102800.69;;;6.13;43.45
15308;BME280;7755;52.208;6.964;2023-02-28T11:11:05;102801.34;;;6.41;43.06
15308;BME280;7755;52.208;6.964;2023-02-28T11:15:22;102797.00;;;6.56;42.79
15308;BME280;7755;52.208;6.964;2023-02-28T11:19:31;102795.44;;;6.80;42.55
15308;BME280;7755;52.208;6.964;2023-02-28T11:23:40;102798.06;;;7.14;42.80
15308;BME280;7755;52.208;6.964;2023-02-28T11:27:47;102793.31;;;7.24;41.61
15308;BME280;7755;52.208;6.964;2023-02-28T11:32:07;102793.34;;;7.49;42.17
15308;BME280;7755;52.208;6.964;2023-02-28T11:36:19;102787.25;;;7.79;40.81
15308;BME280;7755;52.208;6.964;2023-02-28T11:40:30;102770.78;;;8.05;40.69
15308;BME280;7755;52.208;6.964;2023-02-28T11:44:45;102778.88;;;8.21;40.05
15308;BME280;7755;52.208;6.964;2023-02-28T11:48:59;102769.34;;;8.42;39.06
15308;BME280;7755;52.208;6.964;2023-02-28T11:53:17;102769.25;;;8.58;37.68
15308;BME280;7755;52.208;6.964;2023-02-28T11:57:35;102767.34;;;8.67;37.46
15308;BME280;7755;52.208;6.964;2023-02-28T12:01:57;102759.63;;;8.87;37.41
15308;BME280;7755;52.208;6.964;2023-02-28T12:06:13;102758.19;;;8.99;37.08
15308;BME280;7755;52.208;6.964;2023-02-28T12:10:23;102749.00;;;9.08;37.29
15308;BME280;7755;52.208;6.964;2023-02-28T12:14:46;102751.22;;;9.05;36.26
15308;BME280;7755;52.208;6.964;2023-02-28T12:19:06;102734.75;;;9.06;36.49
15308;BME280;7755;52.208;6.964;2023-02-28T12:23:31;102740.59;;;9.18;36.87
15308;BME280;7755;52.208;6.964;2023-02-28T12:27:44;102730.47;;;9.12;36.23
15308;BME280;7755;52.208;6.964;2023-02-28T12:31:50;102735.78;;;9.28;36.71
15308;BME280;7755;52.208;6.964;2023-02-28T12:35:58;102725.31;;;9.40;35.63
15308;BME280;7755;52.208;6.964;2023-02-28T12:40:05;102724.25;;;9.64;36.48
15308;BME280;7755;52.208;6.964;2023-02-28T12:44:17;102711.13;;;9.67;36.49
15308;BME280;7755;52.208;6.964;2023-02-28T12:48:27;102706.19;;;9.85;37.02
15308;BME280;7755;52.208;6.964;2023-02-28T12:52:40;102706.19;;;10.00;36.58
15308;BME280;7755;52.208;6.964;2023-02-28T12:56:50;102698.69;;;10.02;36.46
15308;BME280;7755;52.208;6.964;2023-02-28T13:01:13;102695.44;;;9.77;36.16
15308;BME280;7755;52.208;6.964;2023-02-28T13:05:32;102676.59;;;9.76;37.13
15308;BME280;7755;52.208;6.964;2023-02-28T13:09:40;102680.22;;;9.68;36.57
15308;BME280;7755;52.208;6.964;2023-02-28T13:13:44;102672.06;;;9.68;37.06
15308;BME280;7755;52.208;6.964;2023-02-28T13:17:51;102674.88;;;9.60;36.42
15308;BME280;7755;52.208;6.964;2023-02-28T13:21:56;102677.78;;;9.44;36.55
15308;BME280;7755;52.208;6.964;2023-02-28T13:25:59;102675.78;;;9.38;37.38
15308;BME280;7755;52.208;6.964;2023-02-28T13:39:46;102673.34;;;9.28;38.00
15308;BME280;7755;52.208;6.964;2023-02-28T13:44:02;102661.91;;;9.18;38.84
15308;BME280;7755;52.208;6.964;2023-02-28T13:48:16;102660.88;;;9.19;37.83
15308;BME280;7755;52.208;6.964;2023-02-28T13:52:24;102650.13;;;9.25;37.66
15308;BME280;7755;52.208;6.964;2023-02-28T13:56:36;102647.94;;;9.21;37.63
15308;BME280;7755;52.208;6.964;2023-02-28T14:01:03;102658.03;;;9.35;37.42
15308;BME280;7755;52.208;6.964;2023-02-28T14:05:13;102659.41;;;9.31;36.62
15308;BME280;7755;52.208;6.964;2023-02-28T14:09:23;102662.84;;;9.25;36.83
15308;BME280;7755;52.208;6.964;2023-02-28T14:13:40;102659.91;;;9.12;36.62
15308;BME280;7755;52.208;6.964;2023-02-28T14:17:50;102660.72;;;8.97;36.64
15308;BME280;7755;52.208;6.964;2023-02-28T14:22:04;102657.38;;;8.87;37.25
15308;BME280;7755;52.208;6.964;2023-02-28T14:26:25;102656.16;;;8.75;37.22
15308;BME280;7755;52.208;6.964;2023-02-28T14:31:01;102653.31;;;8.68;38.03
15308;BME280;7755;52.208;6.964;2023-02-28T14:35:20;102658.88;;;8.67;38.10
15308;BME280;7755;52.208;6.964;2023-02-28T14:39:25;102646.78;;;8.55;38.14
15308;BME280;7755;52.208;6.964;2023-02-28T14:43:33;102643.25;;;8.54;38.35
15308;BME280;7755;52.208;6.964;2023-02-28T14:47:37;102629.72;;;8.46;38.34
15308;BME280;7755;52.208;6.964;2023-02-28T14:51:40;102649.75;;;8.37;38.41
15308;BME280;7755;52.208;6.964;2023-02-28T14:55:45;102642.97;;;8.41;38.67
15308;BME280;7755;52.208;6.964;2023-02-28T14:59:57;102630.41;;;8.40;39.69
15308;BME280;7755;52.208;6.964;2023-02-28T15:04:02;102638.41;;;8.33;39.40
15308;BME280;7755;52.208;6.964;2023-02-28T15:08:11;102628.09;;;8.29;39.14
15308;BME280;7755;52.208;6.964;2023-02-28T15:12:15;102635.44;;;8.20;39.04
15308;BME280;7755;52.208;6.964;2023-02-28T15:16:23;102623.97;;;8.10;38.67
15308;BME280;7755;52.208;6.964;2023-02-28T15:20:28;102631.81;;;7.97;39.91
15308;BME280;7755;52.208;6.964;2023-02-28T15:24:36;102637.28;;;7.88;39.95
15308;BME280;7755;52.208;6.964;2023-02-28T15:28:40;102635.63;;;7.79;39.86
15308;BME280;7755;52.208;6.964;2023-02-28T15:32:44;102630.91;;;7.65;40.04
15308;BME280;7755;52.208;6.964;2023-02-28T15:36:48;102638.38;;;7.55;39.70
15308;BME280;7755;52.208;6.964;2023-02-28T15:40:53;102645.50;;;7.56;40.13
15308;BME280;7755;52.208;6.964;2023-02-28T15:44:56;102642.63;;;7.49;40.80
15308;BME280;7755;52.208;6.964;2023-02-28T15:49:00;102645.69;;;7.38;40.77
15308;BME280;7755;52.208;6.964;2023-02-28T15:53:04;102639.97;;;7.25;40.48
15308;BME280;7755;52.208;6.964;2023-02-28T15:57:18;102643.88;;;7.14;40.64
15308;BME280;7755;52.208;6.964;2023-02-28T16:01:24;102644.72;;;6.98;41.55
15308;BME280;7755;52.208;6.964;2023-02-28T16:05:31;102649.97;;;6.92;42.07
15308;BME280;7755;52.208;6.964;2023-02-28T16:09:34;102658.06;;;6.92;42.40
15308;BME280;7755;52.208;6.964;2023-02-28T16:13:39;102654.84;;;6.80;42.32
15308;BME280;7755;52.208;6.964;2023-02-28T16:17:43;102642.00;;;6.74;42.51
15308;BME280;7755;52.208;6.964;2023-02-28T16:21:48;102647.41;;;6.57;42.94
15308;BME280;7755;52.208;6.964;2023-02-28T16:25:52;102648.19;;;6.50;43.02
15308;BME280;7755;52.208;6.964;2023-02-28T16:29:54;102659.34;;;6.39;43.18
15308;BME280;7755;52.208;6.964;2023-02-28T16:33:57;102663.72;;;6.32;43.43
15308;BME280;7755;52.208;6.964;2023-02-28T16:38:02;102656.44;;;6.24;44.25
15308;BME280;7755;52.208;6.964;2023-02-28T16:42:05;102654.88;;;6.13;44.33
15308;BME280;7755;52.208;6.964;2023-02-28T16:46:10;102664.78;;;6.05;44.75
15308;BME280;7755;52.208;6.964;2023-02-28T16:50:16;102664.66;;;5.88;44.92
15308;BME280;7755;52.208;6.964;2023-02-28T16:54:21;102667.28;;;5.72;45.42
15308;BME280;7755;52.208;6.964;2023-02-28T16:58:24;102679.41;;;5.68;45.77
15308;BME280;7755;52.208;6.964;2023-02-28T17:02:29;102681.69;;;5.55;45.79
15308;BME280;7755;52.208;6.964;2023-02-28T17:06:33;102683.31;;;5.47;46.52
15308;BME280;7755;52.208;6.964;2023-02-28T17:10:38;102672.94;;;5.35;46.64
15308;BME280;7755;52.208;6.964;2023-02-28T17:14:42;102676.75;;;5.24;46.92
15308;BME280;7755;52.208;6.964;2023-02-28T17:18:52;102680.94;;;5.18;47.56
15308;BME280;7755;52.208;6.964;2023-02-28T17:22:58;102684.56;;;5.09;47.94
15308;BME280;7755;52.208;6.964;2023-02-28T17:27:04;102685.03;;;5.05;48.24
15308;BME280;7755;52.208;6.964;2023-02-28T17:31:08;102689.19;;;4.99;48.38
15308;BME280;7755;52.208;6.964;2023-02-28T17:35:12;102699.91;;;4.91;48.63
15308;BME280;7755;52.208;6.964;2023-02-28T17:39:17;102705.38;;;4.81;48.75
15308;BME280;7755;52.208;6.964;2023-02-28T17:43:28;102708.28;;;4.70;49.37
15308;BME280;7755;52.208;6.964;2023-02-28T17:47:31;102717.66;;;4.66;49.95
15308;BME280;7755;52.208;6.964;2023-02-28T17:51:34;102715.88;;;4.57;49.78
15308;BME280;7755;52.208;6.964;2023-02-28T17:55:37;102727.25;;;4.51;49.93
15308;BME280;7755;52.208;6.964;2023-02-28T17:59:43;102720.94;;;4.42;50.17
15308;BME280;7755;52.208;6.964;2023-02-28T18:03:46;102718.84;;;4.36;50.54
15308;BME280;7755;52.208;6.964;2023-02-28T18:07:49;102717.06;;;4.27;51.14
15308;BME280;7755;52.208;6.964;2023-02-28T18:11:55;102717.78;;;4.19;51.44
15308;BME280;7755;52.208;6.964;2023-02-28T18:15:59;102719.53;;;4.10;52.32
15308;BME280;7755;52.208;6.964;2023-02-28T18:20:03;102725.09;;;3.99;52.65
15308;BME280;7755;52.208;6.964;2023-02-28T18:24:08;102721.44;;;3.91;52.95
15308;BME280;7755;52.208;6.964;2023-02-28T18:28:11;102726.88;;;3.81;52.82
15308;BME280;7755;52.208;6.964;2023-02-28T18:32:15;102733.41;;;3.69;52.88
15308;BME280;7755;52.208;6.964;2023-02-28T18:36:20;102727.06;;;3.60;53.73
15308;BME280;7755;52.208;6.964;2023-02-28T18:40:23;102725.22;;;3.51;54.83
15308;BME280;7755;52.208;6.964;2023-02-28T18:44:27;102718.88;;;3.42;55.11
15308;BME280;7755;52.208;6.964;2023-02-28T18:48:33;102721.72;;;3.31;55.26
15308;BME280;7755;52.208;6.964;2023-02-28T18:52:37;102731.22;;;3.25;55.65
15308;BME280;7755;52.208;6.964;2023-02-28T18:56:41;102723.84;;;3.18;55.67
15308;BME280;7755;52.208;6.964;2023-02-28T19:00:44;102721.88;;;3.10;55.88
15308;BME280;7755;52.208;6.964;2023-02-28T19:04:50;102725.13;;;3.04;56.52
15308;BME280;7755;52.208;6.964;2023-02-28T19:08:54;102718.06;;;2.93;57.04
15308;BME280;7755;52.208;6.964;2023-02-28T19:12:57;102724.00;;;2.87;56.81
15308;BME280;7755;52.208;6.964;2023-02-28T19:17:00;102714.09;;;2.78;57.30
15308;BME280;7755;52.208;6.964;2023-02-28T19:21:16;102720.16;;;2.70;57.84
15308;BME280;7755;52.208;6.964;2023-02-28T19:25:19;102718.91;;;2.65;58.07
15308;BME280;7755;52.208;6.964;2023-02-28T19:29:23;102706.03;;;2.59;58.82
15308;BME280;7755;52.208;6.964;2023-02-28T19:33:30;102713.78;;;2.52;59.51
15308;BME280;7755;52.208;6.964;2023-02-28T19:37:43;102722.53;;;2.44;59.98
15308;BME280;7755;52.208;6.964;2023-02-28T19:41:47;102726.75;;;2.37;60.47
15308;BME280;7755;52.208;6.964;2023-02-28T19:45:50;102732.66;;;2.31;60.39
15308;BME280;7755;52.208;6.964;2023-02-28T19:49:53;102731.63;;;2.23;61.19
15308;BME280;7755;52.208;6.964;2023-02-28T19:53:58;102735.13;;;2.13;61.63
15308;BME280;7755;52.208;6.964;2023-02-28T19:58:01;102735.66;;;2.07;61.86
15308;BME280;7755;52.208;6.964;2023-02-28T20:02:05;102739.88;;;2.00;62.37
15308;BME280;7755;52.208;6.964;2023-02-28T20:06:14;102740.69;;;1.91;62.63
15308;BME280;7755;52.208;6.964;2023-02-28T20:10:18;102733.16;;;1.85;63.33
15308;BME280;7755;52.208;6.964;2023-02-28T20:14:22;102739.91;;;1.79;63.75
15308;BME280;7755;52.208;6.964;2023-02-28T20:18:26;102735.06;;;1.73;64.10
15308;BME280;7755;52.208;6.964;2023-02-28T20:22:29;102736.88;;;1.63;64.82
15308;BME280;7755;52.208;6.964;2023-02-28T20:26:33;102744.44;;;1.58;65.69
15308;BME280;7755;52.208;6.964;2023-02-28T20:30:39;102745.94;;;1.51;66.17
15308;BME280;7755;52.208;6.964;2023-02-28T20:34:44;102747.56;;;1.42;66.98
15308;BME280;7755;52.208;6.964;2023-02-28T20:38:48;102750.56;;;1.28;68.34
15308;BME280;7755;52.208;6.964;2023-02-28T20:42:53;102756.97;;;1.16;69.55
15308;BME280;7755;52.208;6.964;2023-02-28T20:46:57;102755.88;;;1.07;70.23
15308;BME280;7755;52.208;6.964;2023-02-28T20:51:02;102768.56;;;1.05;71.19
15308;BME280;7755;52.208;6.964;2023-02-28T20:55:07;102762.50;;;1.03;72.17
15308;BME280;7755;52.208;6.964;2023-02-28T20:59:12;102766.88;;;1.04;72.38
15308;BME280;7755;52.208;6.964;2023-02-28T21:03:15;102761.66;;;1.02;72.29
15308;BME280;7755;52.208;6.964;2023-02-28T21:07:18;102757.78;;;0.95;72.76
15308;BME280;7755;52.208;6.964;2023-02-28T21:11:23;102757.16;;;0.92;73.38
15308;BME280;7755;52.208;6.964;2023-02-28T21:15:28;102752.19;;;0.87;73.54
15308;BME280;7755;52.208;6.964;2023-02-28T21:19:57;102753.44;;;0.83;74.02
15308;BME280;7755;52.208;6.964;2023-02-28T21:24:01;102744.78;;;0.79;74.45
15308;BME280;7755;52.208;6.964;2023-02-28T21:28:04;102755.75;;;0.76;74.42
15308;BME280;7755;52.208;6.964;2023-02-28T21:32:11;102757.09;;;0.71;74.39
15308;BME280;7755;52.208;6.964;2023-02-28T21:36:17;102757.47;;;0.66;74.76
15308;BME280;7755;52.208;6.964;2023-02-28T21:40:20;102766.00;;;0.60;74.94
15308;BME280;7755;52.208;6.964;2023-02-28T21:44:23;102762.03;;;0.54;75.15
15308;BME280;7755;52.208;6.964;2023-02-28T21:48:31;102766.63;;;0.52;75.47
15308;BME280;7755;52.208;6.964;2023-02-28T21:52:35;102768.72;;;0.49;75.16
15308;BME280;7755;52.208;6.964;2023-02-28T21:56:39;102772.59;;;0.45;75.38
15308;BME280;7755;52.208;6.964;2023-02-28T22:00:42;102772.25;;;0.38;76.06
15308;BME280;7755;52.208;6.964;2023-02-28T22:04:48;102768.22;;;0.33;77.09
15308;BME280;7755;52.208;6.964;2023-02-28T22:08:52;102759.34;;;0.32;77.19
15308;BME280;7755;52.208;6.964;2023-02-28T22:12:55;102754.13;;;0.31;76.49
15308;BME280;7755;52.208;6.964;2023-02-28T22:17:04;102758.00;;;0.26;76.91